METAR Data
IDs: Format: Raw Decoded Include TAF

Data at: 2216 UTC 24 Mar 2019

KAUS 242153Z 18008KT 10SM BKN045 BKN120 BKN250 27/17 A3000 RMK AO2 SLP149 T02720172 /
KAUS 242053Z 17011KT 10SM BKN036 BKN043 BKN120 BKN250 27/17 A3001 RMK AO2 SLP153 T02670172 58025 $
KAUS 241953Z 19007KT 10SM SCT032 BKN041 26/18 A3003 RMK AO2 SLP162 T02560178 $
KAUS 241853Z 20009KT 10SM FEW027 OVC032 24/18 A3006 RMK AO2 SLP172 T02440178 $
KAUS 241829Z 20008KT 10SM SCT024 OVC031 24/18 A3007 RMK AO2 T02440178 $
KAUS 241753Z 21009KT 10SM SCT021 OVC028 23/18 A3008 RMK AO2 SLP179 T02330178 10233 20183 58008 $
KAUS 241653Z 20009KT 10SM SCT020 OVC028 22/18 A3010 RMK AO2 SLP185 T02220178 $
KAUS 241553Z 19012KT 10SM BKN016 OVC027 22/18 A3010 RMK AO2 SLP186 T02170178 $
KAUS 241536Z 20008KT 10SM BKN017 OVC027 22/18 A3010 RMK AO2 T02220178 $
KAUS 241453Z 18009KT 10SM BKN012 OVC024 21/18 A3010 RMK AO2 SLP187 T02060178 53014 $
KAUS 241437Z 19010KT 10SM BKN012 OVC024 21/18 A3010 RMK AO2 T02060178 $
KAUS 241353Z 19010KT 9SM FEW009 OVC019 19/17 A3009 RMK AO2 SLP184 T01940172 /
KAUS 241335Z 18008KT 8SM FEW009 BKN020 OVC025 19/17 A3009 RMK AO2 T01940172 $
KAUS 241253Z 18006KT 7SM FEW014 OVC021 19/17 A3007 RMK AO2 SLP177 T01890172 $
KAUS 241235Z 18005KT 9SM SCT012 OVC017 18/17 A3007 RMK AO2 T01830172 $
KAUS 241210Z 18004KT 9SM FEW009 BKN016 18/17 A3006 RMK AO2 T01830172 $
KAUS 241156Z 17006KT 9SM FEW008 BKN012 BKN023 18/17 A3006 RMK AO2 T01830172 $
KAUS 241153Z 18006KT 10SM BKN013 BKN025 18/17 A3006 RMK AO2 SLP173 T01830172 10194 20183 53002 $
KAUS 241053Z 17007KT 10SM OVC023 19/17 A3005 RMK AO2 SLP170 T01890172 $
KAUS 240953Z 16005KT 10SM FEW015 BKN024 OVC029 19/17 A3005 RMK AO2 SLP170 T01890172 /
KAUS 240853Z 15006KT 10SM BKN014 OVC021 19/17 A3005 RMK AO2 SLP170 T01890167 58003 $
KAUS 240753Z 16005KT 10SM BKN016 OVC022 19/17 A3006 RMK AO2 SLP173 T01890167 $
KAUS 240653Z 18007KT 10SM OVC013 19/17 A3007 RMK AO2 SLP175 T01890167 $
KAUS 240610Z 18006KT 10SM BKN013 OVC021 19/17 A3007 RMK AO2 T01890167 $
KAUS 240553Z 17007KT 10SM BKN021 OVC026 19/17 A3006 RMK AO2 SLP173 60000 T01890167 10222 20189 402390156 50001 $
KAUS 240453Z 16009KT 10SM FEW015 SCT029 OVC040 19/17 A3006 RMK AO2 SLP174 T01890167 $
KAUS 240353Z 16012KT 10SM BKN026 OVC033 20/17 A3007 RMK AO2 SLP176 T02000167 $
KAUS 240253Z 16013KT 10SM SCT028 OVC034 21/16 A3006 RMK AO2 RAE00 SLP172 P0000 60000 T02110161 50012 /
KAUS 240153Z 18005KT 10SM -RA OVC033 21/16 A3006 RMK AO2 RAB29 SLP175 P0000 T02060161
KAUS 240053Z 18007KT 10SM OVC037 22/16 A3003 RMK AO2 RAB36E45 SLP164 P0000 T02170161 $
KAUS 232353Z 18006KT 10SM OVC035 22/16 A3002 RMK AO2 SLP161 60000 T02220161 10239 20222 55004 $
KAUS 232253Z 16010KT 10SM FEW033 OVC044 23/16 A3001 RMK AO2 SLP156 T02330156 $
KAUS 232153Z 16011KT 10SM FEW035 OVC047 23/16 A3002 RMK AO2 SLP159 T02330156 $
KAUS 232053Z 18008KT 10SM OVC042 23/16 A3004 RMK AO2 SLP164 60000 T02280161 56018 $
KAUS 231953Z 16010KT 10SM BKN041 OVC050 22/16 A3005 RMK AO2 RAB12E21 SLP170 P0000 T02220161 $
KAUS 231853Z 17009KT 10SM FEW028 BKN041 OVC050 23/16 A3007 RMK AO2 SLP175 T02280161 $
KAUS 231806Z 19015KT 10SM SCT028 BKN035 OVC044 23/17 A3008 RMK AO2 T02330167 $
KAUS 231753Z 18011KT 10SM BKN024 OVC028 22/16 A3009 RMK AO2 SLP183 T02220161 10233 20161 58005 $
KAUS 231653Z 16015G20KT 10SM BKN020 BKN035 OVC060 22/16 A3010 RMK AO2 SLP185 T02170161 $
KAUS 231553Z 17011KT 10SM BKN019 OVC060 21/16 A3010 RMK AO2 SLP186 T02060156 $
KAUS 231453Z 16009KT 10SM BKN019 OVC055 19/15 A3010 RMK AO2 SLP189 T01940150 51018 $
KAUS 231409Z 12003KT 10SM BKN022 BKN060 18/14 A3009 RMK AO2 T01780144 $
KAUS 231353Z 12004KT 10SM FEW022 BKN055 BKN080 17/14 A3009 RMK AO2 SLP185 BINOVC T01720144 /
KAUS 231335Z 10004KT 10SM BKN023 OVC060 17/14 A3009 RMK AO2 BINOVC T01670139 $
KAUS 231253Z 09003KT 10SM FEW024 BKN032 BKN060 16/14 A3008 RMK AO2 SLP180 T01610139 /
KAUS 231153Z 15005KT 10SM FEW023 BKN055 17/13 A3005 RMK AO2 SLP169 T01670133 10183 20156 53005 $
KAUS 231135Z 17004KT 10SM FEW023 BKN060 17/13 A3005 RMK AO2 T01670133 $
KAUS 231053Z 19003KT 10SM OVC023 16/13 A3003 RMK AO2 SLP164 T01610128 $
KAUS 231020Z 15005KT 10SM BKN023 OVC065 17/13 A3001 RMK AO2 T01720128 $